Time;durP1;ratioP1;P1;durP2;ratioP2;P2;SDS_P1;SDS_P2;PMS_P1;PMS_P2;Temp;Humidity;BMP_temperature;BMP_pressure;BME280_temperature;BME280_humidity;BME280_pressure;Samples;Min_cycle;Max_cycle;Signal;HPM_P1;HPM_P2
2021/05/17 00:02:16;;;;;;;6.03;5.53;;;12.70;99.90;;;;;;5072484;28;20257;-80
2021/05/17 00:04:42;;;;;;;6.10;5.77;;;12.70;99.90;;;;;;5073270;28;20769;-79
2021/05/17 00:07:10;;;;;;;5.77;5.23;;;12.70;99.90;;;;;;5070723;28;20425;-79
2021/05/17 00:09:36;;;;;;;6.50;6.00;;;12.70;99.90;;;;;;5073113;28;20429;-79
2021/05/17 00:12:04;;;;;;;5.57;5.27;;;12.70;99.90;;;;;;5070875;28;20423;-79
2021/05/17 00:14:30;;;;;;;5.67;5.37;;;12.60;99.90;;;;;;5073215;28;20418;-79
2021/05/17 00:16:56;;;;;;;6.30;5.80;;;12.60;99.90;;;;;;5072465;28;20527;-79
2021/05/17 00:19:23;;;;;;;5.90;5.50;;;12.60;99.90;;;;;;5072816;28;20509;-79
2021/05/17 00:21:50;;;;;;;5.30;5.00;;;12.60;99.90;;;;;;5072796;28;20481;-79
2021/05/17 00:24:17;;;;;;;4.80;4.60;;;12.60;99.90;;;;;;5070724;28;20414;-79
2021/05/17 00:26:43;;;;;;;4.90;4.60;;;12.60;99.90;;;;;;5071529;28;20414;-79
2021/05/17 00:29:09;;;;;;;5.53;5.13;;;12.60;99.90;;;;;;5071821;28;20455;-80
2021/05/17 00:31:41;;;;;;;5.57;5.07;;;12.60;99.90;;;;;;5072520;28;20406;-79
2021/05/17 00:34:08;;;;;;;4.70;4.50;;;12.60;99.90;;;;;;5071089;28;20474;-79
2021/05/17 00:36:34;;;;;;;5.67;5.37;;;12.60;99.90;;;;;;5054796;28;20949;-79
2021/05/17 00:39:02;;;;;;;5.00;4.70;;;12.60;99.90;;;;;;5071799;28;20414;-79
2021/05/17 00:41:28;;;;;;;5.57;5.20;;;12.50;99.90;;;;;;5072512;28;20418;-79
2021/05/17 00:43:56;;;;;;;5.60;5.07;;;12.50;99.90;;;;;;5072400;28;20910;-79
2021/05/17 00:46:24;;;;;;;5.73;5.43;;;12.50;99.90;;;;;;5072112;28;20958;-79
2021/05/17 00:48:51;;;;;;;5.57;5.27;;;12.50;99.90;;;;;;5072457;28;20460;-79
2021/05/17 00:51:17;;;;;;;5.60;5.10;;;12.50;99.90;;;;;;5071330;28;20401;-79
2021/05/17 00:53:43;;;;;;;5.10;4.90;;;12.50;99.90;;;;;;5072249;28;20440;-79
2021/05/17 00:56:10;;;;;;;4.50;4.20;;;12.50;99.90;;;;;;5071851;28;20418;-79
2021/05/17 00:58:36;;;;;;;4.50;4.30;;;12.50;99.90;;;;;;5070681;28;20941;-79
2021/05/17 01:01:04;;;;;;;5.23;4.93;;;12.50;99.90;;;;;;5070341;28;20416;-79
2021/05/17 01:03:29;;;;;;;4.60;4.40;;;12.60;99.90;;;;;;5071145;28;20767;-79
2021/05/17 01:05:56;;;;;;;4.73;4.43;;;12.60;99.90;;;;;;5071697;28;20429;-79
2021/05/17 01:08:32;;;;;;;4.10;3.90;;;12.60;99.90;;;;;;5070382;28;20523;-79
2021/05/17 01:11:03;;;;;;;3.70;3.50;;;12.70;99.90;;;;;;5071978;28;20444;-79
2021/05/17 01:13:29;;;;;;;3.90;3.60;;;12.70;99.90;;;;;;5072255;28;20395;-79
2021/05/17 01:15:56;;;;;;;3.47;3.27;;;12.80;99.90;;;;;;5072163;28;20465;-79
2021/05/17 01:18:23;;;;;;;3.70;3.50;;;12.80;99.90;;;;;;5071556;28;20407;-79
2021/05/17 01:20:50;;;;;;;5.40;3.20;;;12.90;99.90;;;;;;5071839;28;20434;-79
2021/05/17 01:25:57;;;;;;;3.03;2.90;;;12.90;99.90;;;;;;5058735;28;20967;-79
2021/05/17 01:28:29;;;;;;;3.27;3.17;;;13.00;99.90;;;;;;5051412;28;20439;-79
2021/05/17 01:31:03;;;;;;;3.23;3.13;;;13.10;99.90;;;;;;5052199;28;20399;-79
2021/05/17 01:33:47;;;;;;;3.93;3.10;;;13.10;99.90;;;;;;5051609;28;20416;-79
2021/05/17 01:36:15;;;;;;;3.00;2.90;;;13.10;99.90;;;;;;5051191;28;20488;-79
2021/05/17 01:38:47;;;;;;;3.30;3.10;;;13.10;99.90;;;;;;5051912;28;20405;-79
2021/05/17 01:41:15;;;;;;;3.93;3.50;;;13.20;99.90;;;;;;5050785;28;20754;-79
2021/05/17 01:43:46;;;;;;;3.83;3.43;;;13.10;99.90;;;;;;5051798;28;20410;-79
2021/05/17 01:46:17;;;;;;;3.20;3.10;;;13.20;99.90;;;;;;5053801;28;20896;-79
2021/05/17 01:48:44;;;;;;;3.17;2.87;;;13.20;99.90;;;;;;5055884;28;20483;-79
2021/05/17 01:51:18;;;;;;;3.73;3.00;;;13.20;99.90;;;;;;5054948;28;20400;-80
2021/05/17 01:53:46;;;;;;;7.10;3.40;;;13.20;99.90;;;;;;5056001;28;20579;-79
2021/05/17 01:56:13;;;;;;;3.27;3.07;;;13.20;99.90;;;;;;5037072;28;20453;-79
2021/05/17 01:58:40;;;;;;;3.07;2.97;;;13.20;99.90;;;;;;5055604;28;20415;-79
2021/05/17 02:01:17;;;;;;;3.63;3.40;;;13.30;99.90;;;;;;5054784;28;20770;-79
2021/05/17 02:03:46;;;;;;;3.27;3.10;;;13.30;99.90;;;;;;5037734;28;20453;-79
2021/05/17 02:06:13;;;;;;;3.17;3.03;;;13.30;99.90;;;;;;5036939;28;20412;-79
2021/05/17 02:08:46;;;;;;;2.90;2.70;;;13.30;99.90;;;;;;5055107;28;20459;-79
2021/05/17 02:11:20;;;;;;;3.60;3.30;;;13.30;99.90;;;;;;5054394;28;20401;-79
2021/05/17 02:13:46;;;;;;;3.23;3.03;;;13.30;99.90;;;;;;5055106;28;20417;-79
2021/05/17 02:16:13;;;;;;;3.53;3.23;;;13.30;99.90;;;;;;5054514;28;20417;-79
2021/05/17 02:18:42;;;;;;;3.73;3.53;;;13.30;99.90;;;;;;5055279;28;20761;-79
2021/05/17 02:21:09;;;;;;;3.40;3.17;;;13.40;99.90;;;;;;5054408;28;20875;-79
2021/05/17 02:23:35;;;;;;;3.23;3.03;;;13.40;99.90;;;;;;5055098;28;20409;-79
2021/05/17 02:26:02;;;;;;;3.77;3.47;;;13.30;99.90;;;;;;5068999;28;20474;-79
2021/05/17 02:28:29;;;;;;;3.50;3.20;;;13.40;99.90;;;;;;5054717;28;20564;-79
2021/05/17 02:30:55;;;;;;;3.83;3.63;;;13.30;99.90;;;;;;5055049;28;20430;-79
2021/05/17 02:33:21;;;;;;;4.37;4.07;;;13.30;99.90;;;;;;5054247;28;20475;-79
2021/05/17 02:35:48;;;;;;;4.40;4.10;;;13.20;99.90;;;;;;5054900;28;20412;-79
2021/05/17 02:38:14;;;;;;;4.90;4.50;;;13.20;99.90;;;;;;5052953;28;20420;-79
2021/05/17 02:40:41;;;;;;;4.30;3.70;;;13.10;99.90;;;;;;5054791;28;20756;-79
2021/05/17 02:43:11;;;;;;;4.23;4.03;;;13.10;99.90;;;;;;5054042;28;20943;-79
2021/05/17 02:45:38;;;;;;;4.20;4.00;;;13.20;99.90;;;;;;5055059;28;20507;-79
2021/05/17 02:48:07;;;;;;;4.20;4.00;;;13.10;99.90;;;;;;5072231;28;20845;-79
2021/05/17 02:50:39;;;;;;;3.93;3.73;;;13.00;99.90;;;;;;5074456;28;20428;-79
2021/05/17 02:53:27;;;;;;;4.27;3.97;;;12.90;99.90;;;;;;5072979;28;20513;-80
2021/05/17 02:56:11;;;;;;;4.53;4.23;;;12.90;99.90;;;;;;5073283;28;20418;-80
2021/05/17 02:58:39;;;;;;;4.80;4.40;;;12.90;99.90;;;;;;5074610;28;20786;-79
2021/05/17 03:01:09;;;;;;;5.10;4.70;;;13.00;99.90;;;;;;5074094;28;20501;-79
2021/05/17 03:03:49;;;;;;;4.83;4.43;;;13.00;99.90;;;;;;5074432;28;20410;-78
2021/05/17 03:06:41;;;;;;;4.87;4.47;;;13.00;99.90;;;;;;5073828;28;20407;-79
2021/05/17 03:09:09;;;;;;;5.53;5.13;;;13.10;99.90;;;;;;5036812;28;20558;-80
2021/05/17 03:11:44;;;;;;;5.03;4.73;;;13.10;99.90;;;;;;5074262;28;20841;-78
2021/05/17 03:14:14;;;;;;;6.13;5.70;;;13.10;99.90;;;;;;5073562;28;20499;-79
2021/05/17 03:16:45;;;;;;;6.40;6.00;;;13.10;99.90;;;;;;5074037;28;20421;-78
2021/05/17 03:19:12;;;;;;;6.17;5.77;;;13.20;99.90;;;;;;5073440;28;20408;-79
2021/05/17 03:21:39;;;;;;;6.67;6.17;;;13.20;99.90;;;;;;5074126;28;20435;-78
2021/05/17 03:24:06;;;;;;;6.57;6.07;;;13.20;99.90;;;;;;5073930;28;20754;-79
2021/05/17 03:26:33;;;;;;;6.53;6.10;;;13.20;99.90;;;;;;5073202;28;20458;-79
2021/05/17 03:28:59;;;;;;;6.00;5.70;;;13.20;99.90;;;;;;5073921;28;20550;-79
2021/05/17 03:31:24;;;;;;;6.13;5.73;;;13.20;99.90;;;;;;5072906;28;20521;-78
2021/05/17 03:33:50;;;;;;;6.67;6.20;;;13.30;99.90;;;;;;5073495;28;20473;-80
2021/05/17 03:36:16;;;;;;;7.50;7.03;;;13.20;99.90;;;;;;5073442;28;20173;-81
2021/05/17 03:38:41;;;;;;;6.33;5.93;;;13.30;99.90;;;;;;5072296;28;20179;-80
2021/05/17 03:41:07;;;;;;;6.90;6.50;;;13.30;99.90;;;;;;5073597;28;20241;-82
2021/05/17 03:43:33;;;;;;;6.83;6.43;;;13.20;99.90;;;;;;5072761;28;20176;-80
2021/05/17 03:45:59;;;;;;;7.17;6.70;;;13.20;99.90;;;;;;5073019;28;20231;-79
2021/05/17 03:48:25;;;;;;;7.23;6.27;;;13.20;99.90;;;;;;5072606;28;20455;-80
2021/05/17 03:50:50;;;;;;;6.07;5.70;;;13.20;99.90;;;;;;5073562;28;20184;-80
2021/05/17 03:53:17;;;;;;;5.77;5.43;;;13.20;99.90;;;;;;5072443;28;20169;-80
2021/05/17 03:55:44;;;;;;;6.77;6.30;;;13.20;99.90;;;;;;5073474;28;20189;-80
2021/05/17 03:58:10;;;;;;;6.57;6.17;;;13.20;99.90;;;;;;5072493;28;20431;-82
2021/05/17 04:00:36;;;;;;;5.90;5.50;;;13.20;99.90;;;;;;5073340;28;20906;-80
2021/05/17 04:03:05;;;;;;;4.57;4.23;;;13.10;99.90;;;;;;5073182;28;20407;-80
2021/05/17 04:08:27;;;;;;;5.90;5.40;;;13.10;99.90;;;;;;5072337;28;20465;-79
2021/05/17 04:13:37;;;;;;;5.60;5.30;;;13.10;99.90;;;;;;5073128;28;20508;-80
2021/05/17 04:16:03;;;;;;;6.30;6.00;;;13.10;99.90;;;;;;5072668;28;20459;-80
2021/05/17 04:18:29;;;;;;;6.07;5.77;;;13.00;99.90;;;;;;5072259;28;20179;-79
2021/05/17 04:20:55;;;;;;;5.90;5.60;;;13.10;99.90;;;;;;5072943;28;20400;-80
2021/05/17 04:23:22;;;;;;;6.07;5.67;;;13.10;99.90;;;;;;5072077;28;20173;-80
2021/05/17 04:25:49;;;;;;;6.60;6.10;;;13.20;99.90;;;;;;5059425;28;20459;-80
2021/05/17 04:28:16;;;;;;;5.90;5.50;;;13.20;99.90;;;;;;5034246;28;20470;-80
2021/05/17 04:30:41;;;;;;;6.83;6.47;;;13.30;99.90;;;;;;5052545;28;20412;-79
2021/05/17 04:33:07;;;;;;;6.90;6.40;;;13.20;99.90;;;;;;5034687;28;20446;-80
2021/05/17 04:35:33;;;;;;;7.17;6.67;;;13.20;99.90;;;;;;5033979;28;20258;-80
2021/05/17 04:37:59;;;;;;;7.47;6.97;;;13.30;99.90;;;;;;5053117;28;20179;-79
2021/05/17 04:40:25;;;;;;;6.53;6.10;;;13.30;99.90;;;;;;5052428;28;20417;-80
2021/05/17 04:42:50;;;;;;;6.47;6.10;;;13.30;99.90;;;;;;5052513;28;20178;-80
2021/05/17 04:45:16;;;;;;;5.90;5.50;;;13.40;99.90;;;;;;5050742;28;20467;-88
2021/05/17 04:47:42;;;;;;;6.60;6.20;;;13.40;99.90;;;;;;5052858;28;20215;-86
2021/05/17 04:50:08;;;;;;;6.40;5.80;;;13.30;99.90;;;;;;5035061;28;20920;-88
2021/05/17 04:52:35;;;;;;;5.53;5.20;;;13.40;99.90;;;;;;5051838;28;20181;-90
2021/05/17 04:55:01;;;;;;;5.47;5.17;;;13.50;99.90;;;;;;5052885;28;20758;-87
2021/05/17 04:57:27;;;;;;;5.30;5.00;;;13.60;99.90;;;;;;5051764;28;20552;-85
2021/05/17 04:59:52;;;;;;;4.77;4.47;;;13.80;99.90;;;;;;5051983;28;20787;-85
2021/05/17 05:02:18;;;;;;;4.53;4.33;;;14.00;99.90;;;;;;5051971;28;20909;-86
2021/05/17 05:04:44;;;;;;;4.97;4.77;;;14.20;99.90;;;;;;5052632;28;20183;-84
2021/05/17 05:07:09;;;;;;;5.50;5.20;;;14.40;99.90;;;;;;5052300;28;20177;-83
2021/05/17 05:09:35;;;;;;;5.93;5.63;;;14.70;99.90;;;;;;5052309;28;20248;-81
2021/05/17 05:12:01;;;;;;;4.87;4.60;;;14.70;99.90;;;;;;5052569;28;20420;-81
2021/05/17 05:14:27;;;;;;;5.47;5.07;;;14.70;99.90;;;;;;5051425;28;20195;-81
2021/05/17 05:16:52;;;;;;;4.73;4.53;;;14.60;99.90;;;;;;5034489;28;20615;-83
2021/05/17 05:19:18;;;;;;;5.93;5.53;;;14.50;99.90;;;;;;5051190;28;20184;-81
2021/05/17 05:21:44;;;;;;;4.00;3.80;;;14.50;99.90;;;;;;5052397;28;20172;-82
2021/05/17 05:24:10;;;;;;;4.50;4.30;;;14.40;99.90;;;;;;5052234;28;20682;-80
2021/05/17 05:34:16;;;;;;;5.03;4.63;;;14.10;99.90;;;;;;5071770;28;20491;-81
2021/05/17 05:36:42;;;;;;;4.57;4.27;;;14.00;99.90;;;;;;5070956;28;20494;-80
2021/05/17 05:39:08;;;;;;;4.43;4.23;;;14.00;99.90;;;;;;5072285;28;20178;-81
2021/05/17 05:41:34;;;;;;;4.10;3.90;;;14.00;99.90;;;;;;5071380;28;20333;-81
2021/05/17 05:44:00;;;;;;;4.73;4.53;;;13.90;99.90;;;;;;5072254;28;20451;-80
2021/05/17 05:46:26;;;;;;;5.10;4.80;;;13.90;99.90;;;;;;5071665;28;20416;-81
2021/05/17 05:48:53;;;;;;;4.57;4.37;;;14.00;99.90;;;;;;5072035;28;20222;-81
2021/05/17 05:51:24;;;;;;;4.80;4.50;;;14.00;99.90;;;;;;5071558;28;20407;-80
2021/05/17 05:53:51;;;;;;;4.30;3.90;;;14.00;99.90;;;;;;5071819;28;20411;-81
2021/05/17 05:56:17;;;;;;;4.47;4.17;;;14.10;99.90;;;;;;5071545;28;20890;-81
2021/05/17 05:58:46;;;;;;;4.60;4.20;;;14.00;99.90;;;;;;5072105;28;20505;-80
2021/05/17 06:01:12;;;;;;;4.17;3.83;;;14.00;99.90;;;;;;5072145;28;20414;-80
2021/05/17 06:03:38;;;;;;;4.77;3.10;;;14.00;99.90;;;;;;5071490;28;20417;-81
2021/05/17 06:06:05;;;;;;;4.30;4.00;;;14.00;99.90;;;;;;5072023;28;20413;-80
2021/05/17 06:08:33;;;;;;;5.03;4.70;;;14.00;99.90;;;;;;5071376;28;20515;-80
2021/05/17 06:11:00;;;;;;;4.73;4.50;;;14.00;99.90;;;;;;5072077;28;20501;-80
2021/05/17 06:13:26;;;;;;;4.10;3.90;;;13.90;99.90;;;;;;5071307;28;20426;-80
2021/05/17 06:15:52;;;;;;;6.23;5.63;;;14.00;99.90;;;;;;5072036;28;20414;-80
2021/05/17 06:18:18;;;;;;;4.70;4.50;;;14.00;99.90;;;;;;5071318;28;20951;-80
2021/05/17 06:20:44;;;;;;;5.23;4.87;;;14.00;99.90;;;;;;5071942;28;20961;-80
2021/05/17 06:23:13;;;;;;;4.27;3.93;;;13.90;99.90;;;;;;5071567;28;20466;-80
2021/05/17 06:25:40;;;;;;;4.60;3.63;;;13.90;99.90;;;;;;5059505;28;20817;-80
2021/05/17 06:28:06;;;;;;;4.23;4.00;;;14.00;99.90;;;;;;5051778;28;20460;-80
2021/05/17 06:30:42;;;;;;;4.00;3.80;;;14.00;99.90;;;;;;5051527;28;20736;-80
2021/05/17 06:33:08;;;;;;;4.03;3.73;;;14.00;99.90;;;;;;5055436;28;20402;-80
2021/05/17 06:35:42;;;;;;;4.40;3.97;;;14.00;99.90;;;;;;5036998;28;20496;-80
2021/05/17 06:38:08;;;;;;;4.33;4.00;;;14.00;99.90;;;;;;5055405;28;20407;-81
2021/05/17 06:40:34;;;;;;;4.90;4.60;;;14.00;99.90;;;;;;5054643;28;20416;-81
2021/05/17 06:43:00;;;;;;;3.37;3.17;;;14.00;99.90;;;;;;5055141;28;20179;-81
2021/05/17 06:45:26;;;;;;;3.90;3.60;;;14.00;99.90;;;;;;5054844;28;20537;-81
2021/05/17 06:47:52;;;;;;;4.30;4.10;;;14.10;99.90;;;;;;5054757;28;20468;-80
2021/05/17 06:50:18;;;;;;;4.30;4.00;;;14.20;99.90;;;;;;5054765;28;21025;-80
2021/05/17 06:52:44;;;;;;;4.33;3.97;;;14.20;99.90;;;;;;5055146;28;20171;-81
2021/05/17 06:55:19;;;;;;;5.93;5.47;;;14.20;99.90;;;;;;5055001;28;20903;-80
2021/05/17 07:00:38;;;;;;;4.90;4.70;;;14.30;99.90;;;;;;5054348;28;20402;-81
2021/05/17 07:03:07;;;;;;;4.03;3.83;;;14.30;99.90;;;;;;5037084;28;20800;-81
2021/05/17 07:05:34;;;;;;;4.17;3.87;;;14.40;99.90;;;;;;5054377;28;20421;-81
2021/05/17 07:13:12;;;;;;;5.17;4.30;;;14.60;99.90;;;;;;5054662;28;20501;-80
2021/05/17 07:15:38;;;;;;;3.73;3.53;;;14.50;99.90;;;;;;5053596;28;21030;-80
2021/05/17 07:18:04;;;;;;;4.60;4.40;;;14.40;99.90;;;;;;5036798;28;20426;-80
2021/05/17 07:26:02;;;;;;;3.80;3.40;;;14.70;99.90;;;;;;5054533;28;20459;-81
2021/05/17 07:28:29;;;;;;;3.87;3.57;;;14.70;99.90;;;;;;5053655;28;20458;-81
2021/05/17 07:30:56;;;;;;;3.67;3.37;;;14.80;99.90;;;;;;5054500;28;20427;-81
2021/05/17 07:33:21;;;;;;;4.70;4.40;;;14.90;99.90;;;;;;5053642;28;20408;-81
2021/05/17 07:35:47;;;;;;;4.23;3.93;;;14.90;99.90;;;;;;5054277;28;20465;-80
2021/05/17 07:38:13;;;;;;;4.60;4.30;;;14.80;99.90;;;;;;5054739;28;20196;-80
2021/05/17 07:40:39;;;;;;;4.00;3.80;;;14.90;99.90;;;;;;5053543;28;20166;-80
2021/05/17 07:43:05;;;;;;;4.10;3.90;;;14.90;99.90;;;;;;5052859;28;20230;-80
2021/05/17 07:45:31;;;;;;;11.90;5.37;;;15.00;99.90;;;;;;5053034;28;20404;-80
2021/05/17 07:47:57;;;;;;;4.73;4.37;;;15.00;99.80;;;;;;5036053;28;20540;-81
2021/05/17 07:50:23;;;;;;;4.70;4.30;;;15.00;99.90;;;;;;5053286;28;20185;-80
2021/05/17 07:52:49;;;;;;;5.23;4.47;;;15.00;99.90;;;;;;5053782;28;20502;-80
2021/05/17 07:55:20;;;;;;;5.07;4.60;;;15.00;99.60;;;;;;5053550;28;20506;-80
2021/05/17 07:57:46;;;;;;;4.37;4.17;;;14.90;99.40;;;;;;5053980;28;20177;-80
2021/05/17 08:00:12;;;;;;;4.60;4.30;;;15.00;99.60;;;;;;5053923;28;20768;-80
2021/05/17 08:02:38;;;;;;;4.70;4.40;;;15.00;99.80;;;;;;5053067;28;20434;-80
2021/05/17 08:05:05;;;;;;;5.73;5.10;;;15.00;99.90;;;;;;5053649;28;20408;-80
2021/05/17 08:07:32;;;;;;;3.83;3.63;;;15.10;99.60;;;;;;5052710;28;20264;-79
2021/05/17 08:09:57;;;;;;;4.33;4.13;;;15.10;99.60;;;;;;5053471;28;20413;-79
2021/05/17 08:12:23;;;;;;;4.33;4.03;;;15.10;99.40;;;;;;5052867;28;20491;-80
2021/05/17 08:14:49;;;;;;;4.10;3.90;;;15.10;98.90;;;;;;5053357;28;20173;-80
2021/05/17 08:17:15;;;;;;;5.77;5.37;;;15.00;98.90;;;;;;5053403;28;20773;-80
2021/05/17 08:19:41;;;;;;;4.90;4.50;;;15.00;99.10;;;;;;5052550;28;20539;-80
2021/05/17 08:22:07;;;;;;;4.80;4.43;;;15.10;99.30;;;;;;5053138;28;20548;-80
2021/05/17 08:24:32;;;;;;;3.80;3.47;;;15.10;98.80;;;;;;5052500;28;20407;-80
2021/05/17 08:26:59;;;;;;;4.87;4.67;;;15.10;99.10;;;;;;5053429;28;20241;-80
2021/05/17 08:29:31;;;;;;;4.07;3.87;;;15.20;98.80;;;;;;5052462;28;20210;-80
2021/05/17 08:31:57;;;;;;;5.23;4.20;;;15.30;99.00;;;;;;5035508;28;20411;-80
2021/05/17 08:34:23;;;;;;;4.20;3.90;;;15.40;98.30;;;;;;5053272;28;20413;-80
2021/05/17 08:36:49;;;;;;;4.60;4.20;;;15.40;97.90;;;;;;5053115;28;20251;-80
2021/05/17 08:39:14;;;;;;;3.60;3.40;;;15.40;98.00;;;;;;5053040;28;20516;-80
2021/05/17 08:41:40;;;;;;;4.53;4.23;;;15.50;97.80;;;;;;5052426;28;20529;-81
2021/05/17 08:44:07;;;;;;;17.47;11.63;;;15.50;97.70;;;;;;5035305;28;20233;-80
2021/05/17 08:46:33;;;;;;;5.10;4.60;;;15.50;97.80;;;;;;5034559;28;20178;-80
2021/05/17 08:48:59;;;;;;;7.70;5.87;;;15.50;97.10;;;;;;5052729;28;20455;-80
2021/05/17 08:51:32;;;;;;;4.60;4.30;;;15.40;97.00;;;;;;5052261;28;20412;-80
2021/05/17 08:54:01;;;;;;;10.40;5.80;;;15.50;97.70;;;;;;5034944;28;20251;-80
2021/05/17 08:56:27;;;;;;;4.70;4.17;;;15.50;97.60;;;;;;5050366;28;20420;-80
2021/05/17 08:58:58;;;;;;;4.20;4.00;;;15.60;97.50;;;;;;5052580;28;20430;-80
2021/05/17 09:01:24;;;;;;;4.63;3.83;;;15.60;97.80;;;;;;5051312;28;20418;-81
2021/05/17 09:03:57;;;;;;;5.57;5.17;;;15.70;98.00;;;;;;5033516;28;20923;-81
2021/05/17 09:06:25;;;;;;;5.40;4.90;;;16.00;98.20;;;;;;5052145;28;20199;-81
2021/05/17 09:08:51;;;;;;;7.53;6.83;;;16.30;97.70;;;;;;5051699;28;20553;-81
2021/05/17 09:11:37;;;;;;;4.00;3.70;;;16.50;96.70;;;;;;5033888;28;20518;-81
2021/05/17 09:14:13;;;;;;;7.33;6.27;;;16.80;96.00;;;;;;5051518;28;20192;-81
2021/05/17 09:16:49;;;;;;;32.73;10.97;;;17.00;96.30;;;;;;5051659;28;20921;-81
2021/05/17 09:19:16;;;;;;;12.60;6.07;;;17.20;96.30;;;;;;5052454;28;20423;-81
2021/05/17 09:22:08;;;;;;;5.03;4.07;;;17.40;94.50;;;;;;5051568;28;20423;-81
2021/05/17 09:24:43;;;;;;;4.50;4.10;;;17.40;92.40;;;;;;5033916;28;20413;-82
2021/05/17 09:27:11;;;;;;;4.13;3.83;;;17.40;91.80;;;;;;5051797;28;20435;-82
2021/05/17 09:29:59;;;;;;;3.83;3.60;;;17.30;92.00;;;;;;5051652;28;20471;-82
2021/05/17 09:32:31;;;;;;;3.30;3.10;;;17.20;91.70;;;;;;5052317;28;20412;-81
2021/05/17 09:35:19;;;;;;;4.47;4.17;;;17.10;92.40;;;;;;5052313;28;20421;-81
2021/05/17 09:37:49;;;;;;;3.43;3.20;;;17.20;93.70;;;;;;5052033;28;20452;-81
2021/05/17 09:40:22;;;;;;;5.50;5.20;;;17.20;92.90;;;;;;5052305;28;20892;-82
2021/05/17 09:43:08;;;;;;;3.73;3.53;;;17.40;94.70;;;;;;5051672;28;20454;-82
2021/05/17 09:45:36;;;;;;;3.73;3.50;;;17.60;91.50;;;;;;5051202;28;20439;-82
2021/05/17 09:48:24;;;;;;;8.17;4.13;;;17.60;90.60;;;;;;5051054;28;20547;-81
2021/05/17 09:50:59;;;;;;;3.70;3.50;;;17.60;88.80;;;;;;5031384;28;20484;-81
2021/05/17 09:53:30;;;;;;;3.80;3.60;;;17.50;88.70;;;;;;5050614;28;20467;-83
2021/05/17 09:55:56;;;;;;;2.40;2.40;;;17.50;90.20;;;;;;5051943;28;20413;-83
2021/05/17 09:58:27;;;;;;;3.53;3.43;;;17.30;89.80;;;;;;5051650;28;20799;-83
2021/05/17 10:01:10;;;;;;;3.17;3.07;;;17.20;90.20;;;;;;5032642;28;20412;-83
2021/05/17 10:03:43;;;;;;;3.67;3.37;;;17.10;91.50;;;;;;5049311;28;20420;-83
2021/05/17 10:06:31;;;;;;;3.63;3.43;;;17.10;91.30;;;;;;5051458;28;20434;-83
2021/05/17 10:08:57;;;;;;;5.13;4.43;;;17.30;91.40;;;;;;5054584;28;20474;-83
2021/05/17 10:11:25;;;;;;;3.30;3.10;;;17.60;92.30;;;;;;5055129;28;20549;-83
2021/05/17 10:13:51;;;;;;;4.20;3.30;;;17.80;91.50;;;;;;5051717;28;20459;-84
2021/05/17 10:16:19;;;;;;;3.57;3.37;;;18.10;90.10;;;;;;5053743;28;20511;-83
2021/05/17 10:18:46;;;;;;;3.13;3.03;;;18.30;89.60;;;;;;5054466;28;20419;-83
2021/05/17 10:21:16;;;;;;;3.60;3.50;;;18.60;88.60;;;;;;5037051;28;20424;-83
2021/05/17 10:23:42;;;;;;;3.23;3.13;;;18.70;88.40;;;;;;5054395;28;20988;-83
2021/05/17 10:26:12;;;;;;;3.47;3.27;;;18.80;87.80;;;;;;5054994;28;20458;-83
2021/05/17 10:28:41;;;;;;;2.30;2.20;;;18.60;86.10;;;;;;5054146;28;20597;-83
2021/05/17 10:31:16;;;;;;;3.30;3.10;;;18.50;85.20;;;;;;5037131;28;20424;-83
2021/05/17 10:33:44;;;;;;;2.50;2.30;;;18.40;86.60;;;;;;5053722;28;20439;-83
2021/05/17 10:36:10;;;;;;;3.00;2.90;;;18.50;90.00;;;;;;5036342;28;20420;-83
2021/05/17 10:38:46;;;;;;;3.07;2.97;;;18.50;87.70;;;;;;5047029;28;20428;-83
2021/05/17 10:41:36;;;;;;;2.60;2.50;;;18.70;87.00;;;;;;5054865;28;20409;-83
2021/05/17 10:46:50;;;;;;;2.97;2.77;;;18.90;87.20;;;;;;5045527;28;20438;-83
2021/05/17 10:49:20;;;;;;;3.60;3.40;;;18.90;84.90;;;;;;5052597;28;20581;-83
2021/05/17 10:51:46;;;;;;;4.60;4.50;;;18.90;85.30;;;;;;5053479;28;20716;-83
2021/05/17 10:54:30;;;;;;;3.90;3.70;;;18.90;83.00;;;;;;5054129;28;20466;-82
2021/05/17 10:57:02;;;;;;;3.47;3.30;;;18.90;83.00;;;;;;5053711;28;20176;-83
2021/05/17 11:02:26;;;;;;;3.17;3.07;;;18.70;82.40;;;;;;5039992;28;20412;-82
2021/05/17 11:04:57;;;;;;;3.93;3.73;;;18.50;81.20;;;;;;5035556;28;20961;-82
2021/05/17 11:07:29;;;;;;;4.67;4.40;;;18.20;85.00;;;;;;5053662;28;20502;-83
2021/05/17 11:10:34;;;;;;;4.77;4.57;;;18.10;85.30;;;;;;5039873;28;21207;-82
2021/05/17 11:13:03;;;;;;;3.50;3.40;;;18.40;85.90;;;;;;4973304;28;20487;-82
2021/05/17 11:15:44;;;;;;;4.47;4.37;;;18.40;84.30;;;;;;5029727;28;20436;-83
2021/05/17 11:18:11;;;;;;;4.10;3.90;;;18.50;82.00;;;;;;5036264;28;20440;-83
2021/05/17 11:20:50;;;;;;;3.00;2.80;;;18.50;84.40;;;;;;5053635;28;20895;-83
2021/05/17 11:23:28;;;;;;;3.50;3.33;;;18.40;82.50;;;;;;5036610;28;20485;-86
2021/05/17 11:25:56;;;;;;;3.80;3.60;;;18.40;84.20;;;;;;5053427;28;20986;-83
2021/05/17 11:28:34;;;;;;;3.67;3.50;;;18.30;82.50;;;;;;5054245;28;20468;-83
2021/05/17 11:31:04;;;;;;;2.30;2.20;;;18.10;87.70;;;;;;5036698;28;20444;-84
2021/05/17 11:33:53;;;;;;;3.07;2.80;;;17.80;88.50;;;;;;5036151;28;20420;-83
2021/05/17 11:36:25;;;;;;;2.27;2.17;;;17.40;90.10;;;;;;5052937;28;20424;-84
2021/05/17 11:39:18;;;;;;;4.20;3.90;;;17.20;91.60;;;;;;5051351;28;20435;-84
2021/05/17 11:41:44;;;;;;;4.30;4.10;;;17.00;92.50;;;;;;5034545;28;20943;-84
2021/05/17 11:44:14;;;;;;;4.70;4.30;;;16.80;94.10;;;;;;5053936;28;20421;-83
2021/05/17 11:46:47;;;;;;;2.90;2.80;;;16.70;94.80;;;;;;5034601;28;20513;-83
2021/05/17 11:49:18;;;;;;;3.47;3.20;;;16.70;95.40;;;;;;5052770;28;20469;-81
2021/05/17 11:51:50;;;;;;;2.50;2.40;;;16.60;95.90;;;;;;5051944;28;20427;-81
2021/05/17 11:54:17;;;;;;;3.10;2.77;;;16.40;96.10;;;;;;5049010;28;20424;-82
2021/05/17 11:56:45;;;;;;;3.60;3.40;;;16.40;97.10;;;;;;5051128;28;20799;-81
2021/05/17 11:59:19;;;;;;;3.30;3.00;;;16.30;97.00;;;;;;5053159;28;20483;-81
2021/05/17 12:01:48;;;;;;;3.40;3.10;;;16.10;97.00;;;;;;5032555;28;20426;-81
2021/05/17 12:04:18;;;;;;;3.27;3.00;;;16.10;98.50;;;;;;5052506;28;20414;-82
2021/05/17 12:06:47;;;;;;;2.70;2.60;;;15.90;98.40;;;;;;5018379;28;20422;-82
2021/05/17 12:09:36;;;;;;;2.60;2.50;;;15.90;99.10;;;;;;5051530;28;20463;-79
2021/05/17 12:12:05;;;;;;;2.90;2.67;;;16.00;99.40;;;;;;5033065;28;20761;-85
2021/05/17 12:14:33;;;;;;;2.70;2.60;;;16.10;99.30;;;;;;5049849;28;20909;-84
2021/05/17 12:16:59;;;;;;;2.83;2.70;;;16.20;99.70;;;;;;5051901;28;20487;-84
2021/05/17 12:19:25;;;;;;;2.50;2.40;;;16.40;99.90;;;;;;5034255;28;20935;-82
2021/05/17 12:21:56;;;;;;;2.53;2.43;;;16.30;99.80;;;;;;5048455;28;20418;-82
2021/05/17 12:24:28;;;;;;;2.50;2.30;;;16.40;99.20;;;;;;5034901;28;20574;-82
2021/05/17 12:27:18;;;;;;;2.93;2.83;;;16.60;99.50;;;;;;5033926;28;20412;-82
2021/05/17 12:29:57;;;;;;;2.70;2.50;;;17.00;98.30;;;;;;5046928;28;20452;-82
2021/05/17 12:32:34;;;;;;;2.93;2.73;;;17.30;99.60;;;;;;5050662;28;20420;-83
2021/05/17 12:35:12;;;;;;;4.77;4.47;;;17.50;97.50;;;;;;5050991;28;20404;-82
2021/05/17 12:37:49;;;;;;;4.13;3.90;;;17.60;96.30;;;;;;5048164;28;20424;-83
2021/05/17 12:40:34;;;;;;;3.30;3.20;;;17.60;96.40;;;;;;5016386;28;20771;-83
2021/05/17 12:43:18;;;;;;;3.40;3.30;;;17.70;96.80;;;;;;5051895;28;20447;-81
2021/05/17 12:45:47;;;;;;;3.63;3.33;;;17.60;97.80;;;;;;5034359;28;20878;-83
2021/05/17 12:48:20;;;;;;;3.30;3.20;;;17.60;96.60;;;;;;5033617;28;20538;-82
2021/05/17 12:50:52;;;;;;;2.97;2.87;;;17.60;97.20;;;;;;5051016;28;20169;-82
2021/05/17 12:53:19;;;;;;;3.50;3.30;;;17.50;96.00;;;;;;5052007;28;20412;-81
2021/05/17 12:55:47;;;;;;;3.53;3.33;;;17.50;96.00;;;;;;5051560;28;20772;-82
2021/05/17 12:58:24;;;;;;;3.17;3.07;;;17.40;95.80;;;;;;5033180;28;20427;-82
2021/05/17 13:00:52;;;;;;;3.10;3.00;;;17.30;97.20;;;;;;5050820;28;20400;-81
2021/05/17 13:03:29;;;;;;;2.90;2.80;;;17.30;97.20;;;;;;5052270;28;20416;-81
2021/05/17 13:06:17;;;;;;;4.00;2.30;;;17.20;96.70;;;;;;5051780;28;20502;-81
2021/05/17 13:08:46;;;;;;;3.43;3.10;;;17.20;97.10;;;;;;5051112;28;20464;-82
2021/05/17 13:11:23;;;;;;;2.10;2.00;;;17.00;96.50;;;;;;5051939;28;20424;-81
2021/05/17 13:13:57;;;;;;;2.87;2.50;;;16.90;97.10;;;;;;5033321;28;20515;-82
2021/05/17 13:16:27;;;;;;;2.60;2.50;;;16.70;96.80;;;;;;5052218;28;20403;-83
2021/05/17 13:19:32;;;;;;;2.87;2.77;;;16.60;97.80;;;;;;5033456;28;20472;-84
2021/05/17 13:31:03;;;;;;;3.40;3.23;;;16.40;98.70;;;;;;5065052;28;20438;-83
2021/05/17 13:33:49;;;;;;;3.00;2.90;;;16.40;98.90;;;;;;5063744;28;20524;-83
2021/05/17 13:36:20;;;;;;;3.17;3.07;;;16.40;99.20;;;;;;5071133;28;20426;-80
2021/05/17 13:38:51;;;;;;;3.10;2.97;;;16.40;98.90;;;;;;5070975;28;20942;-80
2021/05/17 13:41:19;;;;;;;268.83;178.97;;;16.40;99.60;;;;;;5074249;28;20430;-79
2021/05/17 13:43:45;;;;;;;22.97;17.73;;;16.30;99.40;;;;;;5074136;28;20433;-79